sensor_id;sensor_type;location;lat;lon;timestamp;pressure;altitude;pressure_sealevel;temperature;humidity
28665;BME280;15850;47.524;7.814;2023-05-23T00:01:31;97364.03;;;12.45;100.00
28665;BME280;15850;47.524;7.814;2023-05-23T00:03:57;96907.94;;;9.68;100.00
28665;BME280;15850;47.524;7.814;2023-05-23T00:06:23;97427.84;;;12.96;100.00
28665;BME280;15850;47.524;7.814;2023-05-23T00:08:48;96843.06;;;9.03;100.00
28665;BME280;15850;47.524;7.814;2023-05-23T00:11:14;96886.97;;;9.37;100.00
28665;BME280;15850;47.524;7.814;2023-05-23T00:13:40;97263.06;;;11.75;100.00
28665;BME280;15850;47.524;7.814;2023-05-23T00:16:07;96853.56;;;9.05;100.00
28665;BME280;15850;47.524;7.814;2023-05-23T00:18:34;96735.59;;;8.27;100.00
28665;BME280;15850;47.524;7.814;2023-05-23T00:21:00;97078.41;;;10.63;100.00
28665;BME280;15850;47.524;7.814;2023-05-23T00:23:26;96859.97;;;9.12;100.00
28665;BME280;15850;47.524;7.814;2023-05-23T00:25:51;97595.28;;;13.90;100.00
28665;BME280;15850;47.524;7.814;2023-05-23T00:28:17;96888.16;;;9.24;100.00
28665;BME280;15850;47.524;7.814;2023-05-23T00:30:43;96885.53;;;9.11;100.00
28665;BME280;15850;47.524;7.814;2023-05-23T00:33:09;96928.66;;;9.29;100.00
28665;BME280;15850;47.524;7.814;2023-05-23T00:35:36;97401.28;;;12.22;100.00
28665;BME280;15850;47.524;7.814;2023-05-23T00:38:01;97364.53;;;12.16;100.00
28665;BME280;15850;47.524;7.814;2023-05-23T00:40:27;97295.44;;;11.76;100.00
28665;BME280;15850;47.524;7.814;2023-05-23T00:42:53;96925.88;;;9.41;100.00
28665;BME280;15850;47.524;7.814;2023-05-23T00:45:19;96850.38;;;8.87;100.00
28665;BME280;15850;47.524;7.814;2023-05-23T00:47:46;96926.06;;;9.48;100.00
28665;BME280;15850;47.524;7.814;2023-05-23T00:50:13;96886.09;;;9.33;100.00
28665;BME280;15850;47.524;7.814;2023-05-23T00:52:42;97387.97;;;12.36;100.00
28665;BME280;15850;47.524;7.814;2023-05-23T00:55:09;96957.50;;;9.49;100.00
28665;BME280;15850;47.524;7.814;2023-05-23T00:57:35;97568.22;;;13.46;100.00
28665;BME280;15850;47.524;7.814;2023-05-23T01:00:01;96913.69;;;9.07;100.00
28665;BME280;15850;47.524;7.814;2023-05-23T01:02:27;96844.38;;;8.65;100.00
28665;BME280;15850;47.524;7.814;2023-05-23T01:04:54;97311.16;;;11.83;100.00
28665;BME280;15850;47.524;7.814;2023-05-23T01:07:20;97531.25;;;13.32;100.00
28665;BME280;15850;47.524;7.814;2023-05-23T01:09:47;97173.72;;;10.82;100.00
28665;BME280;15850;47.524;7.814;2023-05-23T01:12:19;97317.41;;;11.84;100.00
28665;BME280;15850;47.524;7.814;2023-05-23T01:14:56;96881.09;;;8.63;100.00
28665;BME280;15850;47.524;7.814;2023-05-23T01:17:28;97563.31;;;13.35;100.00
28665;BME280;15850;47.524;7.814;2023-05-23T01:19:59;97591.31;;;13.48;100.00
28665;BME280;15850;47.524;7.814;2023-05-23T01:22:35;97266.56;;;11.24;100.00
28665;BME280;15850;47.524;7.814;2023-05-23T01:25:10;97372.81;;;12.04;100.00
28665;BME280;15850;47.524;7.814;2023-05-23T01:27:48;97502.91;;;12.86;100.00
28665;BME280;15850;47.524;7.814;2023-05-23T01:30:18;97624.31;;;13.39;100.00
28665;BME280;15850;47.524;7.814;2023-05-23T01:32:47;97497.03;;;12.68;100.00
28665;BME280;15850;47.524;7.814;2023-05-23T01:35:14;97596.28;;;13.43;100.00
28665;BME280;15850;47.524;7.814;2023-05-23T01:37:43;97602.13;;;13.25;100.00
28665;BME280;15850;47.524;7.814;2023-05-23T01:40:09;97544.22;;;12.84;100.00
28665;BME280;15850;47.524;7.814;2023-05-23T01:42:35;97417.81;;;11.82;100.00
28665;BME280;15850;47.524;7.814;2023-05-23T01:45:04;97385.56;;;11.99;100.00
28665;BME280;15850;47.524;7.814;2023-05-23T01:47:30;97609.16;;;13.42;100.00
28665;BME280;15850;47.524;7.814;2023-05-23T01:49:58;97525.16;;;12.68;100.00
28665;BME280;15850;47.524;7.814;2023-05-23T01:52:24;97606.25;;;13.19;100.00
28665;BME280;15850;47.524;7.814;2023-05-23T01:54:50;97616.81;;;13.21;100.00
28665;BME280;15850;47.524;7.814;2023-05-23T01:57:16;97617.97;;;13.35;100.00
28665;BME280;15850;47.524;7.814;2023-05-23T01:59:42;97313.13;;;11.51;100.00
28665;BME280;15850;47.524;7.814;2023-05-23T02:02:10;97381.25;;;11.98;100.00
28665;BME280;15850;47.524;7.814;2023-05-23T02:04:35;97607.50;;;13.57;100.00
28665;BME280;15850;47.524;7.814;2023-05-23T02:07:01;97610.16;;;13.53;100.00
28665;BME280;15850;47.524;7.814;2023-05-23T02:09:27;97222.03;;;11.01;100.00
28665;BME280;15850;47.524;7.814;2023-05-23T02:11:52;96976.06;;;9.47;100.00
28665;BME280;15850;47.524;7.814;2023-05-23T02:14:19;96953.72;;;9.38;100.00
28665;BME280;15850;47.524;7.814;2023-05-23T02:16:45;97610.88;;;13.50;100.00
28665;BME280;15850;47.524;7.814;2023-05-23T02:19:12;97261.19;;;11.12;100.00
28665;BME280;15850;47.524;7.814;2023-05-23T02:21:38;97408.94;;;12.32;100.00
28665;BME280;15850;47.524;7.814;2023-05-23T02:24:03;97623.75;;;13.50;100.00
28665;BME280;15850;47.524;7.814;2023-05-23T02:26:29;97394.63;;;12.04;100.00
28665;BME280;15850;47.524;7.814;2023-05-23T02:28:55;97610.66;;;13.39;100.00
28665;BME280;15850;47.524;7.814;2023-05-23T02:31:20;97624.22;;;13.36;100.00
28665;BME280;15850;47.524;7.814;2023-05-23T02:33:46;97546.56;;;13.02;100.00
28665;BME280;15850;47.524;7.814;2023-05-23T02:36:13;97254.94;;;10.96;100.00
28665;BME280;15850;47.524;7.814;2023-05-23T02:38:38;97625.66;;;13.14;100.00
28665;BME280;15850;47.524;7.814;2023-05-23T02:41:04;97606.44;;;13.10;100.00
28665;BME280;15850;47.524;7.814;2023-05-23T02:43:30;97632.63;;;13.27;100.00
28665;BME280;15850;47.524;7.814;2023-05-23T02:45:56;97423.63;;;12.12;100.00
28665;BME280;15850;47.524;7.814;2023-05-23T02:48:21;97613.38;;;13.39;100.00
28665;BME280;15850;47.524;7.814;2023-05-23T02:50:49;97435.19;;;11.89;100.00
28665;BME280;15850;47.524;7.814;2023-05-23T02:53:16;97239.72;;;10.63;100.00
28665;BME280;15850;47.524;7.814;2023-05-23T02:55:42;97621.06;;;13.34;100.00
28665;BME280;15850;47.524;7.814;2023-05-23T02:58:07;97445.81;;;12.10;100.00
28665;BME280;15850;47.524;7.814;2023-05-23T03:00:33;97447.81;;;12.29;100.00
28665;BME280;15850;47.524;7.814;2023-05-23T03:02:58;97447.28;;;12.23;100.00
28665;BME280;15850;47.524;7.814;2023-05-23T03:05:24;97412.59;;;11.89;100.00
28665;BME280;15850;47.524;7.814;2023-05-23T03:07:50;97620.72;;;13.35;100.00
28665;BME280;15850;47.524;7.814;2023-05-23T03:10:17;97382.03;;;11.83;100.00
28665;BME280;15850;47.524;7.814;2023-05-23T03:12:43;97467.94;;;12.40;100.00
28665;BME280;15850;47.524;7.814;2023-05-23T03:15:09;97653.66;;;13.43;100.00
28665;BME280;15850;47.524;7.814;2023-05-23T03:17:38;97422.75;;;12.08;100.00
28665;BME280;15850;47.524;7.814;2023-05-23T03:20:04;97650.47;;;13.40;100.00
28665;BME280;15850;47.524;7.814;2023-05-23T03:22:30;97244.84;;;10.80;100.00
28665;BME280;15850;47.524;7.814;2023-05-23T03:24:55;97145.00;;;10.09;100.00
28665;BME280;15850;47.524;7.814;2023-05-23T03:27:22;97626.41;;;13.46;100.00
28665;BME280;15850;47.524;7.814;2023-05-23T03:29:48;97487.41;;;12.23;100.00
28665;BME280;15850;47.524;7.814;2023-05-23T03:32:13;97613.94;;;13.29;100.00
28665;BME280;15850;47.524;7.814;2023-05-23T03:34:39;97226.13;;;10.79;100.00
28665;BME280;15850;47.524;7.814;2023-05-23T03:37:05;97415.25;;;11.57;100.00
28665;BME280;15850;47.524;7.814;2023-05-23T03:39:30;97520.06;;;12.35;100.00
28665;BME280;15850;47.524;7.814;2023-05-23T03:41:56;97639.13;;;13.07;100.00
28665;BME280;15850;47.524;7.814;2023-05-23T03:44:23;97631.72;;;13.23;100.00
28665;BME280;15850;47.524;7.814;2023-05-23T03:46:49;97356.09;;;11.42;100.00
28665;BME280;15850;47.524;7.814;2023-05-23T03:49:16;97551.75;;;12.72;100.00
28665;BME280;15850;47.524;7.814;2023-05-23T03:51:41;97589.63;;;13.08;100.00
28665;BME280;15850;47.524;7.814;2023-05-23T03:54:07;97551.06;;;12.94;100.00
28665;BME280;15850;47.524;7.814;2023-05-23T03:56:32;97641.00;;;13.54;100.00
28665;BME280;15850;47.524;7.814;2023-05-23T03:58:58;97643.81;;;13.38;100.00
28665;BME280;15850;47.524;7.814;2023-05-23T04:01:25;97631.41;;;13.25;100.00
28665;BME280;15850;47.524;7.814;2023-05-23T04:03:50;97648.81;;;13.36;100.00
28665;BME280;15850;47.524;7.814;2023-05-23T04:06:16;97654.38;;;13.39;100.00
28665;BME280;15850;47.524;7.814;2023-05-23T04:08:44;97638.03;;;13.43;100.00
28665;BME280;15850;47.524;7.814;2023-05-23T04:11:10;97666.16;;;13.44;100.00
28665;BME280;15850;47.524;7.814;2023-05-23T04:13:38;97664.34;;;13.67;100.00
28665;BME280;15850;47.524;7.814;2023-05-23T04:16:04;97637.00;;;13.48;100.00
28665;BME280;15850;47.524;7.814;2023-05-23T04:18:32;97653.84;;;13.69;100.00
28665;BME280;15850;47.524;7.814;2023-05-23T04:20:58;97547.78;;;13.04;100.00
28665;BME280;15850;47.524;7.814;2023-05-23T04:23:23;97459.38;;;12.58;100.00
28665;BME280;15850;47.524;7.814;2023-05-23T04:25:51;97677.03;;;13.95;100.00
28665;BME280;15850;47.524;7.814;2023-05-23T04:28:20;97561.31;;;13.32;100.00
28665;BME280;15850;47.524;7.814;2023-05-23T04:30:46;97675.53;;;14.17;100.00
28665;BME280;15850;47.524;7.814;2023-05-23T04:33:13;97628.53;;;13.92;100.00
28665;BME280;15850;47.524;7.814;2023-05-23T04:35:40;97681.03;;;14.40;100.00
28665;BME280;15850;47.524;7.814;2023-05-23T04:38:06;97668.09;;;14.37;100.00
28665;BME280;15850;47.524;7.814;2023-05-23T04:40:32;97519.75;;;13.62;100.00
28665;BME280;15850;47.524;7.814;2023-05-23T04:43:07;97639.97;;;14.59;100.00
28665;BME280;15850;47.524;7.814;2023-05-23T04:45:41;97675.31;;;14.87;100.00
28665;BME280;15850;47.524;7.814;2023-05-23T04:48:23;97649.72;;;14.79;100.00
28665;BME280;15850;47.524;7.814;2023-05-23T04:50:50;97670.59;;;15.11;100.00
28665;BME280;15850;47.524;7.814;2023-05-23T04:53:16;97638.09;;;14.86;100.00
28665;BME280;15850;47.524;7.814;2023-05-23T04:55:42;97676.28;;;15.25;100.00
28665;BME280;15850;47.524;7.814;2023-05-23T04:58:12;97681.81;;;15.28;100.00
28665;BME280;15850;47.524;7.814;2023-05-23T05:00:38;97490.75;;;14.23;100.00
28665;BME280;15850;47.524;7.814;2023-05-23T05:03:04;97691.59;;;15.52;100.00
28665;BME280;15850;47.524;7.814;2023-05-23T05:05:30;97676.78;;;15.84;100.00
28665;BME280;15850;47.524;7.814;2023-05-23T05:07:57;97615.16;;;15.47;100.00
28665;BME280;15850;47.524;7.814;2023-05-23T05:10:22;97689.09;;;15.97;100.00
28665;BME280;15850;47.524;7.814;2023-05-23T05:12:48;97689.19;;;16.04;100.00
28665;BME280;15850;47.524;7.814;2023-05-23T05:15:14;97669.97;;;16.04;100.00
28665;BME280;15850;47.524;7.814;2023-05-23T05:17:42;97674.38;;;16.12;100.00
28665;BME280;15850;47.524;7.814;2023-05-23T05:20:10;97505.84;;;14.86;100.00
28665;BME280;15850;47.524;7.814;2023-05-23T05:22:37;97703.50;;;16.20;100.00
28665;BME280;15850;47.524;7.814;2023-05-23T05:25:05;97648.31;;;15.95;100.00
28665;BME280;15850;47.524;7.814;2023-05-23T05:27:31;97631.44;;;15.93;100.00
28665;BME280;15850;47.524;7.814;2023-05-23T05:29:57;97691.97;;;16.41;100.00
28665;BME280;15850;47.524;7.814;2023-05-23T05:32:23;97696.72;;;16.44;100.00
28665;BME280;15850;47.524;7.814;2023-05-23T05:34:49;97438.66;;;14.95;100.00
28665;BME280;15850;47.524;7.814;2023-05-23T05:37:15;97655.38;;;16.67;100.00
28665;BME280;15850;47.524;7.814;2023-05-23T05:39:42;97433.63;;;15.31;100.00
28665;BME280;15850;47.524;7.814;2023-05-23T05:42:09;97693.41;;;17.03;100.00
28665;BME280;15850;47.524;7.814;2023-05-23T05:44:35;97689.13;;;17.05;100.00
28665;BME280;15850;47.524;7.814;2023-05-23T05:47:01;97669.91;;;17.05;100.00
28665;BME280;15850;47.524;7.814;2023-05-23T05:49:27;97700.34;;;17.34;100.00
28665;BME280;15850;47.524;7.814;2023-05-23T05:51:54;97703.09;;;17.34;100.00
28665;BME280;15850;47.524;7.814;2023-05-23T05:54:20;97710.97;;;17.35;100.00
28665;BME280;15850;47.524;7.814;2023-05-23T05:56:45;97641.50;;;16.90;100.00
28665;BME280;15850;47.524;7.814;2023-05-23T05:59:13;97712.63;;;17.47;100.00
28665;BME280;15850;47.524;7.814;2023-05-23T06:01:39;97726.84;;;17.56;100.00
28665;BME280;15850;47.524;7.814;2023-05-23T06:04:04;97725.28;;;17.55;100.00
28665;BME280;15850;47.524;7.814;2023-05-23T06:06:30;97623.28;;;16.75;100.00
28665;BME280;15850;47.524;7.814;2023-05-23T06:08:56;97664.16;;;16.80;100.00
28665;BME280;15850;47.524;7.814;2023-05-23T06:11:21;97563.34;;;16.43;100.00
28665;BME280;15850;47.524;7.814;2023-05-23T06:13:47;97586.88;;;16.44;100.00
28665;BME280;15850;47.524;7.814;2023-05-23T06:16:14;97703.81;;;17.24;100.00
28665;BME280;15850;47.524;7.814;2023-05-23T06:18:40;97714.16;;;17.45;100.00
28665;BME280;15850;47.524;7.814;2023-05-23T06:21:07;97717.66;;;17.90;100.00
28665;BME280;15850;47.524;7.814;2023-05-23T06:23:35;97680.53;;;17.66;100.00
28665;BME280;15850;47.524;7.814;2023-05-23T06:26:00;97714.28;;;17.55;100.00
28665;BME280;15850;47.524;7.814;2023-05-23T06:28:27;97721.75;;;17.58;100.00
28665;BME280;15850;47.524;7.814;2023-05-23T06:30:52;97530.44;;;16.47;100.00
28665;BME280;15850;47.524;7.814;2023-05-23T06:33:19;97669.38;;;17.44;100.00
28665;BME280;15850;47.524;7.814;2023-05-23T06:35:45;97635.50;;;17.29;100.00
28665;BME280;15850;47.524;7.814;2023-05-23T06:38:10;97724.13;;;18.29;100.00
28665;BME280;15850;47.524;7.814;2023-05-23T06:40:36;97633.22;;;17.38;100.00
28665;BME280;15850;47.524;7.814;2023-05-23T06:43:01;97590.34;;;17.30;100.00
28665;BME280;15850;47.524;7.814;2023-05-23T06:45:47;97714.69;;;18.27;100.00
28665;BME280;15850;47.524;7.814;2023-05-23T06:48:13;97703.31;;;18.32;100.00
28665;BME280;15850;47.524;7.814;2023-05-23T06:50:40;97551.97;;;17.55;100.00
28665;BME280;15850;47.524;7.814;2023-05-23T06:53:06;97720.81;;;18.93;100.00
28665;BME280;15850;47.524;7.814;2023-05-23T06:55:32;97728.13;;;18.39;100.00
28665;BME280;15850;47.524;7.814;2023-05-23T06:57:59;97728.84;;;18.25;100.00
28665;BME280;15850;47.524;7.814;2023-05-23T07:00:27;97738.97;;;18.07;100.00
28665;BME280;15850;47.524;7.814;2023-05-23T07:03:04;97741.31;;;18.01;100.00
28665;BME280;15850;47.524;7.814;2023-05-23T07:05:30;97737.00;;;18.04;100.00
28665;BME280;15850;47.524;7.814;2023-05-23T07:07:57;97729.94;;;18.06;100.00
28665;BME280;15850;47.524;7.814;2023-05-23T07:10:23;97617.56;;;17.50;100.00
28665;BME280;15850;47.524;7.814;2023-05-23T07:12:51;97742.31;;;18.48;100.00
28665;BME280;15850;47.524;7.814;2023-05-23T07:15:19;97671.91;;;18.65;100.00
28665;BME280;15850;47.524;7.814;2023-05-23T07:17:54;97691.13;;;18.37;100.00
28665;BME280;15850;47.524;7.814;2023-05-23T07:20:20;97706.22;;;18.89;100.00
28665;BME280;15850;47.524;7.814;2023-05-23T07:22:46;97747.22;;;18.98;100.00
28665;BME280;15850;47.524;7.814;2023-05-23T07:25:15;97749.38;;;18.46;100.00
28665;BME280;15850;47.524;7.814;2023-05-23T07:27:41;97748.50;;;18.24;100.00
28665;BME280;15850;47.524;7.814;2023-05-23T07:30:07;97746.66;;;18.49;100.00
28665;BME280;15850;47.524;7.814;2023-05-23T07:32:34;97744.81;;;18.75;100.00
28665;BME280;15850;47.524;7.814;2023-05-23T07:34:59;97744.81;;;18.89;100.00
28665;BME280;15850;47.524;7.814;2023-05-23T07:37:25;97750.41;;;19.46;100.00
28665;BME280;15850;47.524;7.814;2023-05-23T07:39:51;97749.63;;;19.42;100.00
28665;BME280;15850;47.524;7.814;2023-05-23T07:42:18;97670.63;;;18.34;100.00
28665;BME280;15850;47.524;7.814;2023-05-23T07:44:43;97650.22;;;18.46;100.00
28665;BME280;15850;47.524;7.814;2023-05-23T07:47:09;97729.91;;;19.08;100.00
28665;BME280;15850;47.524;7.814;2023-05-23T07:49:34;97742.09;;;19.07;100.00
28665;BME280;15850;47.524;7.814;2023-05-23T07:52:00;97709.78;;;18.97;100.00
28665;BME280;15850;47.524;7.814;2023-05-23T07:54:25;97708.63;;;19.01;100.00
28665;BME280;15850;47.524;7.814;2023-05-23T07:56:55;97747.25;;;19.91;100.00
28665;BME280;15850;47.524;7.814;2023-05-23T07:59:23;97743.31;;;19.81;100.00
28665;BME280;15850;47.524;7.814;2023-05-23T08:01:50;97727.53;;;19.85;100.00
28665;BME280;15850;47.524;7.814;2023-05-23T08:04:18;97754.75;;;19.51;100.00
28665;BME280;15850;47.524;7.814;2023-05-23T08:06:49;97674.38;;;19.24;100.00
28665;BME280;15850;47.524;7.814;2023-05-23T08:09:14;97751.72;;;20.69;100.00
28665;BME280;15850;47.524;7.814;2023-05-23T08:11:45;97760.28;;;21.55;100.00
28665;BME280;15850;47.524;7.814;2023-05-23T08:14:11;97682.81;;;21.03;100.00
28665;BME280;15850;47.524;7.814;2023-05-23T08:16:38;97741.09;;;20.64;100.00
28665;BME280;15850;47.524;7.814;2023-05-23T08:19:09;97740.78;;;20.40;100.00
28665;BME280;15850;47.524;7.814;2023-05-23T08:21:35;97752.47;;;20.84;100.00
28665;BME280;15850;47.524;7.814;2023-05-23T08:24:01;97750.03;;;20.97;100.00
28665;BME280;15850;47.524;7.814;2023-05-23T08:26:26;97744.09;;;19.89;100.00
28665;BME280;15850;47.524;7.814;2023-05-23T08:28:52;97758.28;;;19.52;100.00
28665;BME280;15850;47.524;7.814;2023-05-23T08:31:18;97764.59;;;19.34;100.00
28665;BME280;15850;47.524;7.814;2023-05-23T08:33:44;97759.84;;;19.53;100.00
28665;BME280;15850;47.524;7.814;2023-05-23T08:36:11;97750.41;;;19.75;100.00
28665;BME280;15850;47.524;7.814;2023-05-23T08:38:37;97684.13;;;19.86;100.00
28665;BME280;15850;47.524;7.814;2023-05-23T08:41:15;97569.19;;;19.04;100.00
28665;BME280;15850;47.524;7.814;2023-05-23T08:43:43;97683.75;;;19.87;100.00
28665;BME280;15850;47.524;7.814;2023-05-23T08:46:11;97549.47;;;19.13;100.00
28665;BME280;15850;47.524;7.814;2023-05-23T08:48:38;97705.78;;;20.02;100.00
28665;BME280;15850;47.524;7.814;2023-05-23T08:51:06;97753.81;;;20.44;100.00
28665;BME280;15850;47.524;7.814;2023-05-23T08:53:35;97760.66;;;19.89;100.00
28665;BME280;15850;47.524;7.814;2023-05-23T08:56:05;97764.59;;;19.45;100.00
28665;BME280;15850;47.524;7.814;2023-05-23T08:58:40;97757.09;;;19.95;100.00
28665;BME280;15850;47.524;7.814;2023-05-23T09:01:06;97759.69;;;20.49;100.00
28665;BME280;15850;47.524;7.814;2023-05-23T09:03:32;97759.75;;;21.19;100.00
28665;BME280;15850;47.524;7.814;2023-05-23T09:06:22;97616.00;;;20.49;100.00
28665;BME280;15850;47.524;7.814;2023-05-23T09:08:48;97706.00;;;20.57;100.00
28665;BME280;15850;47.524;7.814;2023-05-23T09:11:16;97754.16;;;21.78;100.00
28665;BME280;15850;47.524;7.814;2023-05-23T09:13:43;97697.97;;;21.78;100.00
28665;BME280;15850;47.524;7.814;2023-05-23T09:16:15;97744.50;;;21.94;100.00
28665;BME280;15850;47.524;7.814;2023-05-23T09:18:46;97759.56;;;20.81;100.00
28665;BME280;15850;47.524;7.814;2023-05-23T09:21:14;97695.84;;;20.22;100.00
28665;BME280;15850;47.524;7.814;2023-05-23T09:23:57;97740.31;;;20.67;100.00
28665;BME280;15850;47.524;7.814;2023-05-23T09:26:23;97747.41;;;21.31;100.00
28665;BME280;15850;47.524;7.814;2023-05-23T09:28:49;97749.44;;;20.46;100.00
28665;BME280;15850;47.524;7.814;2023-05-23T09:31:14;97729.06;;;20.08;100.00
28665;BME280;15850;47.524;7.814;2023-05-23T09:33:43;97751.09;;;20.26;100.00
28665;BME280;15850;47.524;7.814;2023-05-23T09:36:09;97714.00;;;20.30;100.00
28665;BME280;15850;47.524;7.814;2023-05-23T09:38:36;97742.47;;;20.06;100.00
28665;BME280;15850;47.524;7.814;2023-05-23T09:41:04;97681.75;;;19.99;100.00
28665;BME280;15850;47.524;7.814;2023-05-23T09:43:30;97606.97;;;19.36;100.00
28665;BME280;15850;47.524;7.814;2023-05-23T09:46:00;97658.53;;;19.82;100.00
28665;BME280;15850;47.524;7.814;2023-05-23T09:48:29;97640.69;;;20.08;100.00
28665;BME280;15850;47.524;7.814;2023-05-23T09:50:54;97636.69;;;20.16;100.00
28665;BME280;15850;47.524;7.814;2023-05-23T09:53:20;97745.53;;;21.17;100.00
28665;BME280;15850;47.524;7.814;2023-05-23T09:55:46;97743.78;;;20.78;100.00
28665;BME280;15850;47.524;7.814;2023-05-23T09:58:15;97743.44;;;21.39;100.00
28665;BME280;15850;47.524;7.814;2023-05-23T10:00:42;97736.81;;;21.71;100.00
28665;BME280;15850;47.524;7.814;2023-05-23T10:03:09;97731.28;;;21.71;100.00
28665;BME280;15850;47.524;7.814;2023-05-23T10:05:37;97373.78;;;19.83;100.00
28665;BME280;15850;47.524;7.814;2023-05-23T10:08:08;97315.31;;;18.55;100.00
28665;BME280;15850;47.524;7.814;2023-05-23T10:10:35;97736.84;;;21.67;100.00
28665;BME280;15850;47.524;7.814;2023-05-23T10:13:18;97733.59;;;20.64;100.00
28665;BME280;15850;47.524;7.814;2023-05-23T10:15:45;97488.19;;;19.75;100.00
28665;BME280;15850;47.524;7.814;2023-05-23T10:18:16;97736.66;;;21.44;100.00
28665;BME280;15850;47.524;7.814;2023-05-23T10:20:47;97693.63;;;21.35;100.00
28665;BME280;15850;47.524;7.814;2023-05-23T10:23:14;97745.38;;;21.46;100.00
28665;BME280;15850;47.524;7.814;2023-05-23T10:25:41;97637.81;;;20.96;100.00
28665;BME280;15850;47.524;7.814;2023-05-23T10:28:06;97287.44;;;18.39;100.00
28665;BME280;15850;47.524;7.814;2023-05-23T10:30:45;97758.28;;;21.60;100.00
28665;BME280;15850;47.524;7.814;2023-05-23T10:33:21;97736.84;;;22.09;100.00
28665;BME280;15850;47.524;7.814;2023-05-23T10:35:55;97365.47;;;19.90;97.97
28665;BME280;15850;47.524;7.814;2023-05-23T10:38:40;97731.47;;;21.53;100.00
28665;BME280;15850;47.524;7.814;2023-05-23T10:41:41;97138.69;;;18.46;100.00
28665;BME280;15850;47.524;7.814;2023-05-23T10:44:16;97530.13;;;21.19;100.00
28665;BME280;15850;47.524;7.814;2023-05-23T10:47:05;97724.09;;;22.52;97.16
28665;BME280;15850;47.524;7.814;2023-05-23T10:49:41;97016.47;;;18.26;98.45
28665;BME280;15850;47.524;7.814;2023-05-23T10:52:11;97506.31;;;21.94;95.18
28665;BME280;15850;47.524;7.814;2023-05-23T10:54:53;97733.38;;;23.00;91.16
28665;BME280;15850;47.524;7.814;2023-05-23T10:57:26;97336.66;;;20.74;93.91
28665;BME280;15850;47.524;7.814;2023-05-23T10:59:52;97706.63;;;22.21;96.96
28665;BME280;15850;47.524;7.814;2023-05-23T11:02:24;97320.09;;;19.36;100.00
28665;BME280;15850;47.524;7.814;2023-05-23T11:05:19;97504.41;;;20.84;100.00
28665;BME280;15850;47.524;7.814;2023-05-23T11:08:10;97471.84;;;20.58;95.22
28665;BME280;15850;47.524;7.814;2023-05-23T11:10:58;97698.75;;;21.82;94.94
28665;BME280;15850;47.524;7.814;2023-05-23T11:13:52;97465.09;;;20.62;95.87
28665;BME280;15850;47.524;7.814;2023-05-23T11:16:22;97722.16;;;22.12;95.14
28665;BME280;15850;47.524;7.814;2023-05-23T11:22:11;97700.09;;;22.69;87.49
28665;BME280;15850;47.524;7.814;2023-05-23T11:24:50;97687.44;;;22.38;86.03
28665;BME280;15850;47.524;7.814;2023-05-23T11:27:16;97609.16;;;22.57;85.65
28665;BME280;15850;47.524;7.814;2023-05-23T11:29:42;97198.63;;;20.26;77.38
28665;BME280;15850;47.524;7.814;2023-05-23T11:32:11;97663.94;;;22.77;81.49
28665;BME280;15850;47.524;7.814;2023-05-23T11:34:37;97691.59;;;23.11;86.03
28665;BME280;15850;47.524;7.814;2023-05-23T11:37:03;97649.69;;;23.05;79.20
28665;BME280;15850;47.524;7.814;2023-05-23T11:39:30;97666.59;;;22.84;78.59
28665;BME280;15850;47.524;7.814;2023-05-23T11:41:58;97690.69;;;23.17;80.62
28665;BME280;15850;47.524;7.814;2023-05-23T11:44:24;97679.50;;;22.97;86.75
28665;BME280;15850;47.524;7.814;2023-05-23T11:47:00;97714.78;;;22.97;85.62
28665;BME280;15850;47.524;7.814;2023-05-23T11:49:27;97690.34;;;23.39;76.10
28665;BME280;15850;47.524;7.814;2023-05-23T11:52:00;97678.00;;;23.87;77.68
28665;BME280;15850;47.524;7.814;2023-05-23T11:54:26;97676.03;;;23.87;79.90
28665;BME280;15850;47.524;7.814;2023-05-23T11:56:58;97447.22;;;22.04;78.52
28665;BME280;15850;47.524;7.814;2023-05-23T11:59:25;97340.75;;;21.54;77.72
28665;BME280;15850;47.524;7.814;2023-05-23T12:01:50;97453.91;;;22.57;66.51
28665;BME280;15850;47.524;7.814;2023-05-23T12:04:19;97590.41;;;23.39;64.02
28665;BME280;15850;47.524;7.814;2023-05-23T12:06:45;97635.81;;;23.29;65.47
28665;BME280;15850;47.524;7.814;2023-05-23T12:09:12;97315.94;;;21.20;66.37
28665;BME280;15850;47.524;7.814;2023-05-23T12:11:41;97702.78;;;23.54;63.05
28665;BME280;15850;47.524;7.814;2023-05-23T12:14:13;97520.19;;;22.21;62.85
28665;BME280;15850;47.524;7.814;2023-05-23T12:16:42;97461.91;;;22.28;58.10
28665;BME280;15850;47.524;7.814;2023-05-23T12:19:08;97256.44;;;20.78;57.55
28665;BME280;15850;47.524;7.814;2023-05-23T12:21:42;97573.44;;;22.86;58.00
28665;BME280;15850;47.524;7.814;2023-05-23T12:24:16;97398.22;;;22.24;56.41
28665;BME280;15850;47.524;7.814;2023-05-23T12:26:48;97664.19;;;24.23;54.16
28665;BME280;15850;47.524;7.814;2023-05-23T12:29:18;97551.16;;;23.17;51.77
28665;BME280;15850;47.524;7.814;2023-05-23T12:31:47;97675.13;;;23.94;54.05
28665;BME280;15850;47.524;7.814;2023-05-23T12:34:15;97305.22;;;22.00;54.42
28665;BME280;15850;47.524;7.814;2023-05-23T12:36:44;97672.88;;;24.65;51.86
28665;BME280;15850;47.524;7.814;2023-05-23T12:39:13;97682.53;;;24.60;52.36
28665;BME280;15850;47.524;7.814;2023-05-23T12:41:43;97498.66;;;23.46;54.53
28665;BME280;15850;47.524;7.814;2023-05-23T12:44:09;97468.03;;;23.70;54.31
28665;BME280;15850;47.524;7.814;2023-05-23T12:46:46;97665.81;;;24.60;55.27
28665;BME280;15850;47.524;7.814;2023-05-23T12:49:12;97651.03;;;24.47;56.69
28665;BME280;15850;47.524;7.814;2023-05-23T12:51:38;97648.66;;;24.06;57.36
28665;BME280;15850;47.524;7.814;2023-05-23T12:54:04;97645.81;;;23.89;58.58
28665;BME280;15850;47.524;7.814;2023-05-23T12:56:30;97484.25;;;22.88;61.72
28665;BME280;15850;47.524;7.814;2023-05-23T12:58:55;97530.75;;;23.47;60.27
28665;BME280;15850;47.524;7.814;2023-05-23T13:01:21;97634.53;;;23.77;60.74